Time;durP1;ratioP1;P1;durP2;ratioP2;P2;SDS_P1;SDS_P2;PMS_P1;PMS_P2;Temp;Humidity;BMP_temperature;BMP_pressure;BME280_temperature;BME280_humidity;BME280_pressure;Samples;Min_cycle;Max_cycle;Signal;HPM_P1;HPM_P2
2023/02/04 00:01:38;;;;;;;0.08;0.08;;;;;;;12.12;66.78;102750.06;7361079;19;20375;-59
2023/02/04 00:04:03;;;;;;;0.10;0.10;;;;;;;12.15;66.66;102744.81;7361796;19;20713;-59
2023/02/04 00:06:29;;;;;;;0.10;0.10;;;;;;;12.15;66.41;102753.56;7358969;19;20018;-57
2023/02/04 00:08:54;;;;;;;0.10;0.10;;;;;;;12.15;66.82;102755.31;7363481;19;20025;-59
2023/02/04 00:11:19;;;;;;;0.10;0.10;;;;;;;12.04;66.95;102744.78;7358306;19;20770;-59
2023/02/04 00:13:45;;;;;;;0.00;0.00;;;;;;;12.12;66.64;102753.56;7361505;19;20029;-59
2023/02/04 00:16:10;;;;;;;0.00;0.00;;;;;;;12.09;66.86;102752.66;7361298;19;22985;-59
2023/02/04 00:18:36;;;;;;;0.10;0.10;;;;;;;12.10;66.54;102751.78;7362399;19;20014;-59
2023/02/04 00:21:01;;;;;;;0.10;0.10;;;;;;;12.12;66.59;102750.94;7365572;19;20010;-59
2023/02/04 00:23:27;;;;;;;0.00;0.00;;;;;;;12.11;66.72;102745.69;7361399;19;20010;-59
2023/02/04 00:25:52;;;;;;;0.10;0.10;;;;;;;12.00;66.45;102734.28;7365025;19;20018;-59
2023/02/04 00:28:18;;;;;;;0.00;0.00;;;;;;;12.10;66.44;102746.56;7358779;19;20355;-58
2023/02/04 00:30:44;;;;;;;0.10;0.10;;;;;;;12.02;65.99;102743.94;7362887;19;20006;-59
2023/02/04 00:33:09;;;;;;;0.00;0.00;;;;;;;12.04;66.08;102742.16;7360503;19;20077;-58
2023/02/04 00:35:36;;;;;;;0.10;0.10;;;;;;;12.10;65.72;102752.66;7362963;19;20034;-59
2023/02/04 00:38:02;;;;;;;0.03;0.03;;;;;;;12.09;65.90;102748.31;7361138;19;20011;-58
2023/02/04 00:40:27;;;;;;;0.10;0.10;;;;;;;12.09;65.96;102747.44;7360587;19;21843;-57
2023/02/04 00:42:53;;;;;;;0.10;0.10;;;;;;;12.09;65.81;102755.28;7359525;19;20017;-58
2023/02/04 00:45:18;;;;;;;0.10;0.10;;;;;;;11.97;65.20;102732.56;7363302;19;20752;-58
2023/02/04 00:47:44;;;;;;;0.00;0.00;;;;;;;12.08;65.34;102749.19;7361665;19;20013;-59
2023/02/04 00:50:09;;;;;;;0.00;0.00;;;;;;;12.04;64.94;102743.91;7360547;19;20558;-59
2023/02/04 00:52:34;;;;;;;0.10;0.10;;;;;;;12.08;65.16;102748.31;7362039;19;20022;-58
2023/02/04 00:55:00;;;;;;;0.10;0.10;;;;;;;12.09;64.70;102750.91;7361091;19;20029;-59
2023/02/04 00:57:25;;;;;;;0.00;0.00;;;;;;;11.99;64.87;102727.31;7362028;19;20010;-59
2023/02/04 00:59:51;;;;;;;0.10;0.10;;;;;;;11.65;64.39;102674.78;7362498;19;20018;-58
2023/02/04 01:02:16;;;;;;;0.10;0.10;;;;;;;12.10;64.28;102752.66;7360206;19;20018;-59
2023/02/04 01:04:42;;;;;;;0.10;0.10;;;;;;;12.11;64.56;102745.69;7364909;19;20034;-59
2023/02/04 01:07:07;;;;;;;0.10;0.10;;;;;;;11.79;64.17;102699.28;7360416;19;20056;-58
2023/02/04 01:09:33;;;;;;;0.05;0.05;;;;;;;12.09;64.56;102750.06;7360615;19;21065;-59
2023/02/04 01:11:58;;;;;;;0.10;0.10;;;;;;;12.10;64.58;102751.78;7360492;19;20087;-59
2023/02/04 01:14:23;;;;;;;0.00;0.00;;;;;;;12.12;64.25;102750.94;7360655;19;20014;-59
2023/02/04 01:16:49;;;;;;;0.10;0.10;;;;;;;12.15;64.10;102753.56;7359460;19;20026;-59
2023/02/04 01:19:14;;;;;;;0.10;0.10;;;;;;;12.15;63.90;102761.41;7360174;19;20014;-59
2023/02/04 01:21:40;;;;;;;0.00;0.00;;;;;;;12.16;64.17;102763.16;7359294;19;20030;-59
2023/02/04 01:24:05;;;;;;;0.10;0.10;;;;;;;12.15;64.45;102752.69;7355900;19;20693;-59
2023/02/04 01:26:30;;;;;;;0.08;0.08;;;;;;;12.19;64.58;102759.69;7352875;19;20569;-59
2023/02/04 01:28:56;;;;;;;0.00;0.00;;;;;;;12.06;64.17;102740.41;7353757;19;20011;-59
2023/02/04 01:31:21;;;;;;;0.00;0.00;;;;;;;12.17;64.31;102767.56;7356249;19;20074;-59
2023/02/04 01:33:47;;;;;;;0.08;0.08;;;;;;;12.16;64.35;102763.16;7357256;19;20011;-59
2023/02/04 01:36:12;;;;;;;0.03;0.03;;;;;;;12.15;63.93;102761.41;7357865;19;20451;-57
2023/02/04 01:38:37;;;;;;;0.00;0.00;;;;;;;12.14;63.91;102757.06;7355516;19;20006;-58
2023/02/04 01:41:04;;;;;;;0.00;0.00;;;;;;;11.81;64.04;102696.66;7358640;19;20038;-59
2023/02/04 01:43:30;;;;;;;0.00;0.00;;;;;;;12.16;63.99;102760.53;7360125;19;20358;-58
2023/02/04 01:45:56;;;;;;;0.00;0.00;;;;;;;12.16;63.65;102763.16;7360651;19;20019;-59
2023/02/04 01:48:22;;;;;;;0.05;0.05;;;;;;;12.15;64.00;102766.66;7353957;19;20132;-59
2023/02/04 01:50:49;;;;;;;0.10;0.10;;;;;;;12.04;64.00;102747.41;7360780;19;20808;-58
2023/02/04 01:53:19;;;;;;;0.10;0.10;;;;;;;12.17;64.00;102759.69;7359356;19;20023;-59
2023/02/04 01:55:45;;;;;;;0.00;0.00;;;;;;;12.14;63.84;102764.91;7357252;19;20014;-59
2023/02/04 01:58:11;;;;;;;0.00;0.00;;;;;;;12.09;63.95;102756.16;7356904;19;20447;-59
2023/02/04 02:00:38;;;;;;;0.10;0.10;;;;;;;12.07;64.03;102752.66;7355668;19;20010;-59
2023/02/04 02:03:05;;;;;;;0.10;0.10;;;;;;;12.15;63.88;102760.53;7353722;19;20006;-59
2023/02/04 02:05:45;;;;;;;0.10;0.10;;;;;;;12.17;64.07;102759.69;7358094;19;20014;-59
2023/02/04 02:08:11;;;;;;;0.10;0.10;;;;;;;12.14;63.76;102764.91;7357198;19;20018;-59
2023/02/04 02:10:39;;;;;;;0.10;0.10;;;;;;;12.16;63.47;102760.53;7356786;19;20587;-58
2023/02/04 02:13:07;;;;;;;0.10;0.10;;;;;;;12.15;63.48;102766.66;7352633;19;20074;-59
2023/02/04 02:15:32;;;;;;;;;;;;;;;12.19;64.05;102763.19;7359915;19;20531;-59
2023/02/04 02:17:58;;;;;;;0.10;0.10;;;;;;;12.02;63.29;102743.94;7360179;19;20449;-59
2023/02/04 02:20:25;;;;;;;0.10;0.10;;;;;;;12.14;63.46;102759.66;7355663;19;20023;-58
2023/02/04 02:23:00;;;;;;;0.08;0.08;;;;;;;12.13;63.32;102763.16;7358824;19;20026;-58
2023/02/04 02:25:25;;;;;;;0.10;0.10;;;;;;;12.12;63.43;102769.28;7357607;19;20911;-59
2023/02/04 02:27:51;;;;;;;0.10;0.10;;;;;;;12.06;63.46;102769.22;7358316;19;22444;-59
2023/02/04 02:30:18;;;;;;;0.00;0.00;;;;;;;12.09;63.26;102774.50;7359083;19;20010;-59
2023/02/04 02:32:48;;;;;;;0.08;0.08;;;;;;;12.12;63.10;102777.13;7356731;19;20026;-59
2023/02/04 02:35:14;;;;;;;0.10;0.10;;;;;;;11.81;63.11;102728.97;7357557;19;20014;-57
2023/02/04 02:37:40;;;;;;;0.10;0.10;;;;;;;12.05;63.32;102769.22;7358663;19;20058;-59
2023/02/04 02:40:07;;;;;;;0.10;0.10;;;;;;;12.09;63.08;102777.09;7356970;19;20019;-57
2023/02/04 02:42:32;;;;;;;0.00;0.00;;;;;;;12.11;63.15;102774.50;7356282;19;20074;-59
2023/02/04 02:44:58;;;;;;;0.10;0.10;;;;;;;12.12;63.06;102771.03;7357361;19;20087;-59
2023/02/04 02:47:25;;;;;;;0.00;0.00;;;;;;;12.05;63.05;102770.09;7359322;19;20009;-59
2023/02/04 02:49:53;;;;;;;0.00;0.00;;;;;;;12.14;63.20;102774.50;7358130;19;20024;-59
2023/02/04 02:52:19;;;;;;;0.10;0.10;;;;;;;12.06;62.96;102769.22;7351797;19;20006;-59
2023/02/04 02:54:45;;;;;;;0.10;0.10;;;;;;;12.10;62.67;102772.75;7357062;19;20030;-59
2023/02/04 02:57:21;;;;;;;0.10;0.10;;;;;;;12.11;63.20;102774.50;7350945;19;20091;-58
2023/02/04 02:59:47;;;;;;;0.10;0.10;;;;;;;12.03;62.46;102766.63;7341844;19;20749;-58
2023/02/04 03:02:16;;;;;;;0.00;0.00;;;;;;;12.05;62.28;102774.47;7356383;19;20027;-59
2023/02/04 03:04:46;;;;;;;0.10;0.10;;;;;;;12.09;62.28;102771.88;7355161;19;20011;-58
2023/02/04 03:07:13;;;;;;;0.10;0.10;;;;;;;11.99;63.06;102749.13;7351498;19;20031;-58
2023/02/04 03:09:38;;;;;;;0.10;0.10;;;;;;;12.06;62.28;102766.59;7352976;19;20046;-59
2023/02/04 03:12:05;;;;;;;0.10;0.10;;;;;;;12.06;62.04;102761.38;7356163;19;20815;-59
2023/02/04 03:14:31;;;;;;;0.10;0.10;;;;;;;11.88;62.23;102729.91;7346515;19;20027;-58
2023/02/04 03:16:57;;;;;;;0.08;0.08;;;;;;;12.05;62.37;102764.88;7353492;19;20042;-58
2023/02/04 03:19:24;;;;;;;0.00;0.00;;;;;;;12.05;61.83;102759.63;7355106;19;20029;-59
2023/02/04 03:21:50;;;;;;;0.00;0.00;;;;;;;12.04;61.97;102764.88;7351770;19;20042;-59
2023/02/04 03:24:15;;;;;;;0.10;0.10;;;;;;;11.91;62.25;102735.13;7357302;19;20011;-58
2023/02/04 03:26:41;;;;;;;0.10;0.10;;;;;;;11.98;62.36;102746.53;7357626;19;20707;-59
2023/02/04 03:29:09;;;;;;;0.03;0.03;;;;;;;12.03;62.15;102752.66;7354431;19;20007;-59
2023/02/04 03:31:36;;;;;;;0.10;0.10;;;;;;;11.98;61.70;102743.91;7361058;19;20039;-59
2023/02/04 03:34:02;;;;;;;0.00;0.00;;;;;;;11.99;61.78;102749.13;7360963;19;20454;-59
2023/02/04 03:36:28;;;;;;;0.10;0.10;;;;;;;12.00;61.88;102750.00;7357666;19;20170;-58
2023/02/04 03:38:53;;;;;;;0.00;0.00;;;;;;;11.98;61.84;102754.38;7363043;19;20575;-59
2023/02/04 03:41:19;;;;;;;0.10;0.10;;;;;;;11.98;61.55;102767.47;7361730;19;20534;-59
2023/02/04 03:43:44;;;;;;;0.10;0.10;;;;;;;11.88;61.53;102748.22;7360777;19;20007;-59
2023/02/04 03:46:09;;;;;;;0.10;0.10;;;;;;;11.89;61.65;102750.84;7361453;19;20014;-58
2023/02/04 03:48:35;;;;;;;0.10;0.10;;;;;;;11.94;61.67;102748.25;7353925;19;20021;-58
2023/02/04 03:51:00;;;;;;;0.05;0.05;;;;;;;11.94;61.43;102756.09;7360788;19;20951;-59
2023/02/04 03:53:26;;;;;;;0.10;0.10;;;;;;;11.95;61.71;102763.06;7360893;19;20017;-59
2023/02/04 03:55:51;;;;;;;0.05;0.05;;;;;;;11.94;61.63;102756.97;7348851;19;20027;-59
2023/02/04 03:58:16;;;;;;;0.10;0.10;;;;;;;11.94;61.26;102756.97;7359731;19;20024;-58
2023/02/04 04:00:42;;;;;;;0.10;0.10;;;;;;;11.94;61.50;102761.34;7360229;19;20481;-59
2023/02/04 04:03:07;;;;;;;0.10;0.10;;;;;;;11.79;61.13;102740.28;7360921;19;20025;-59
2023/02/04 04:05:33;;;;;;;0.10;0.10;;;;;;;11.94;61.29;102756.09;7340204;19;20470;-59
2023/02/04 04:07:58;;;;;;;0.10;0.10;;;;;;;11.92;61.02;102763.94;7358666;19;20026;-60
2023/02/04 04:10:24;;;;;;;0.10;0.10;;;;;;;11.92;60.78;102755.22;7359926;19;20034;-59
2023/02/04 04:12:49;;;;;;;0.10;0.10;;;;;;;11.90;60.53;102743.84;7358106;19;20018;-59
2023/02/04 04:15:15;;;;;;;0.10;0.10;;;;;;;11.91;60.70;102750.84;7362727;19;20050;-58
2023/02/04 04:17:40;;;;;;;0.10;0.10;;;;;;;11.82;60.83;102729.88;7360425;19;20014;-59
2023/02/04 04:20:06;;;;;;;0.10;0.10;;;;;;;11.88;61.04;102737.75;7358749;19;20845;-59
2023/02/04 04:22:32;;;;;;;0.10;0.10;;;;;;;11.88;61.05;102745.59;7346114;19;20053;-58
2023/02/04 04:24:58;;;;;;;0.10;0.10;;;;;;;11.65;60.79;102707.06;7359821;19;20848;-59
2023/02/04 04:27:24;;;;;;;0.00;0.00;;;;;;;11.87;60.25;102743.84;7360348;19;20070;-59
2023/02/04 04:29:50;;;;;;;0.10;0.10;;;;;;;11.87;61.38;102738.63;7357545;19;20202;-59
2023/02/04 04:32:15;;;;;;;0.00;0.00;;;;;;;11.81;60.77;102728.06;7362257;19;20125;-59
2023/02/04 04:34:41;;;;;;;0.10;0.10;;;;;;;11.85;60.48;102735.09;7355851;19;20006;-59
2023/02/04 04:37:06;;;;;;;0.10;0.10;;;;;;;11.82;60.88;102740.34;7352746;19;20010;-59
2023/02/04 04:39:32;;;;;;;0.10;0.10;;;;;;;11.81;60.60;102739.44;7361568;19;20015;-59
2023/02/04 04:41:57;;;;;;;0.10;0.10;;;;;;;11.75;60.01;102728.91;7361345;19;20019;-59
2023/02/04 04:44:23;;;;;;;0.10;0.10;;;;;;;11.80;59.90;102742.03;7362193;19;20021;-59
2023/02/04 04:46:48;;;;;;;0.10;0.10;;;;;;;11.78;60.31;102736.78;7359576;19;20018;-59
2023/02/04 04:49:13;;;;;;;0.10;0.10;;;;;;;11.80;60.28;102745.50;7363480;19;20003;-59
2023/02/04 04:51:39;;;;;;;0.00;0.00;;;;;;;11.79;60.51;102751.63;7361963;19;20373;-58
2023/02/04 04:54:04;;;;;;;0.10;0.10;;;;;;;11.65;59.89;102716.66;7359729;19;20513;-59
2023/02/04 04:56:30;;;;;;;0.03;0.03;;;;;;;11.75;60.37;102743.75;7360458;19;20007;-59
2023/02/04 04:58:55;;;;;;;0.05;0.05;;;;;;;11.74;60.35;102740.25;7357810;19;20015;-58
2023/02/04 05:01:21;;;;;;;0.10;0.10;;;;;;;11.74;59.89;102749.84;7361259;19;20714;-59
2023/02/04 05:03:47;;;;;;;0.10;0.10;;;;;;;11.73;60.12;102750.72;7362173;19;20742;-59
2023/02/04 05:06:12;;;;;;;0.10;0.10;;;;;;;11.73;60.44;102748.09;7362427;19;20035;-58
2023/02/04 05:08:38;;;;;;;0.10;0.10;;;;;;;11.76;59.94;102750.72;7360155;19;20002;-59
2023/02/04 05:11:03;;;;;;;0.10;0.10;;;;;;;11.75;59.98;102760.31;7360535;19;20017;-59
2023/02/04 05:13:29;;;;;;;0.00;0.00;;;;;;;11.76;60.27;102761.19;7361946;19;20598;-60
2023/02/04 05:15:54;;;;;;;0.05;0.05;;;;;;;11.76;60.41;102763.81;7359650;19;20384;-60
2023/02/04 05:18:20;;;;;;;0.10;0.10;;;;;;;11.74;60.28;102757.69;7359390;19;20010;-59
2023/02/04 05:20:45;;;;;;;0.10;0.10;;;;;;;11.76;60.37;102763.81;7359396;19;20022;-58
2023/02/04 05:23:11;;;;;;;0.10;0.10;;;;;;;11.71;60.41;102761.19;7358950;19;20007;-59
2023/02/04 05:25:36;;;;;;;0.10;0.10;;;;;;;11.76;59.98;102761.19;7361888;19;20010;-57
2023/02/04 05:28:02;;;;;;;0.10;0.10;;;;;;;11.72;60.12;102770.78;7358391;19;20014;-59
2023/02/04 05:30:27;;;;;;;0.10;0.10;;;;;;;11.64;60.37;102746.31;7359603;19;20074;-58
2023/02/04 05:32:52;;;;;;;0.10;0.10;;;;;;;11.68;60.16;102755.94;7355462;19;20003;-59
2023/02/04 05:35:18;;;;;;;0.10;0.10;;;;;;;11.76;60.22;102771.66;7362187;19;20026;-59
2023/02/04 05:37:43;;;;;;;0.10;0.10;;;;;;;11.62;60.11;102743.69;7357265;19;20027;-59
2023/02/04 05:40:09;;;;;;;0.10;0.10;;;;;;;11.78;60.07;102769.94;7356985;19;20692;-59
2023/02/04 05:42:35;;;;;;;0.10;0.10;;;;;;;11.40;60.28;102694.72;7356749;19;20032;-60
2023/02/04 05:45:00;;;;;;;0.10;0.10;;;;;;;11.77;59.89;102762.97;7358510;19;20002;-59
2023/02/04 05:47:25;;;;;;;0.10;0.10;;;;;;;11.67;60.28;102741.97;7359080;19;20014;-59
2023/02/04 05:49:51;;;;;;;0.10;0.10;;;;;;;11.75;60.09;102755.09;7356531;19;20010;-59
2023/02/04 05:52:16;;;;;;;0.10;0.10;;;;;;;11.76;60.12;102753.34;7357716;19;20506;-59
2023/02/04 05:54:42;;;;;;;0.10;0.10;;;;;;;11.60;60.07;102734.94;7359288;19;20019;-57
2023/02/04 05:57:07;;;;;;;0.10;0.10;;;;;;;11.74;60.21;102747.22;7359691;19;20019;-59
2023/02/04 05:59:32;;;;;;;0.00;0.00;;;;;;;11.69;59.85;102740.22;7357642;19;20010;-59
2023/02/04 06:01:58;;;;;;;0.10;0.10;;;;;;;11.65;59.75;102733.22;7355288;19;20646;-59
2023/02/04 06:04:23;;;;;;;0.10;0.10;;;;;;;11.75;59.96;102746.38;7357437;19;20014;-59
2023/02/04 06:06:49;;;;;;;0.08;0.08;;;;;;;11.77;59.70;102747.25;7358964;19;20015;-60
2023/02/04 06:09:14;;;;;;;0.10;0.10;;;;;;;11.75;60.10;102743.75;7356763;19;20604;-59
2023/02/04 06:11:39;;;;;;;0.10;0.10;;;;;;;11.75;59.71;102751.59;7359543;19;20014;-58
2023/02/04 06:14:05;;;;;;;0.10;0.10;;;;;;;11.74;59.99;102744.63;7359918;19;20029;-59
2023/02/04 06:16:31;;;;;;;0.10;0.10;;;;;;;11.74;60.06;102752.47;7359952;19;20002;-59
2023/02/04 06:18:56;;;;;;;0.10;0.10;;;;;;;11.73;59.85;102750.72;7357288;19;20017;-59
2023/02/04 06:21:22;;;;;;;0.00;0.00;;;;;;;11.75;59.73;102759.44;7356660;19;20010;-58
2023/02/04 06:23:47;;;;;;;0.10;0.10;;;;;;;11.75;60.24;102754.22;7360755;19;20007;-60
2023/02/04 06:26:13;;;;;;;0.10;0.10;;;;;;;11.74;59.81;102752.47;7360113;19;20014;-57
2023/02/04 06:28:38;;;;;;;0.10;0.10;;;;;;;11.74;60.06;102748.09;7358867;19;20030;-59
2023/02/04 06:31:03;;;;;;;0.10;0.10;;;;;;;11.68;60.04;102738.50;7353601;19;20016;-59
2023/02/04 06:33:29;;;;;;;0.00;0.00;;;;;;;11.74;60.11;102740.25;7359613;19;20010;-58
2023/02/04 06:35:54;;;;;;;0.10;0.10;;;;;;;11.74;60.19;102742.00;7355310;19;20346;-59
2023/02/04 06:38:20;;;;;;;0.10;0.10;;;;;;;11.65;60.21;102733.22;7357327;19;20017;-59
2023/02/04 06:40:52;;;;;;;0.00;0.00;;;;;;;11.68;59.80;102733.25;7358772;19;20013;-59
2023/02/04 06:43:17;;;;;;;0.08;0.08;;;;;;;11.67;60.40;102741.97;7357436;19;21836;-59
2023/02/04 06:45:43;;;;;;;0.10;0.10;;;;;;;11.74;60.16;102757.69;7359159;19;20034;-59
2023/02/04 06:48:08;;;;;;;0.00;0.00;;;;;;;11.63;60.06;102739.31;7358885;19;20855;-59
2023/02/04 06:50:33;;;;;;;0.10;0.10;;;;;;;11.72;60.24;102748.97;7356555;19;20014;-59
2023/02/04 06:52:59;;;;;;;0.10;0.10;;;;;;;11.73;60.03;102748.09;7354471;19;20009;-59
2023/02/04 06:55:24;;;;;;;0.10;0.10;;;;;;;11.70;60.21;102747.22;7353516;19;20018;-59
2023/02/04 06:57:50;;;;;;;0.00;0.00;;;;;;;11.65;60.30;102743.69;7346231;19;20022;-59
2023/02/04 07:00:15;;;;;;;0.10;0.10;;;;;;;11.70;60.21;102755.06;7361174;19;20006;-59
2023/02/04 07:02:41;;;;;;;0.10;0.10;;;;;;;11.69;60.35;102745.47;7361799;19;20006;-58
2023/02/04 07:05:07;;;;;;;0.00;0.00;;;;;;;11.72;60.33;102749.84;7354627;19;20056;-59
2023/02/04 07:07:33;;;;;;;0.10;0.10;;;;;;;11.64;60.24;102741.94;7365145;19;20010;-59
2023/02/04 07:09:59;;;;;;;0.10;0.10;;;;;;;11.53;60.17;102722.69;7363436;19;20019;-59
2023/02/04 07:12:24;;;;;;;0.10;0.10;;;;;;;11.69;60.48;102739.34;7362112;19;20007;-59
2023/02/04 07:14:50;;;;;;;0.00;0.00;;;;;;;11.70;60.31;102747.22;7360826;19;20019;-58
2023/02/04 07:17:15;;;;;;;0.10;0.10;;;;;;;11.58;60.03;102726.22;7361637;19;20015;-59
2023/02/04 07:19:40;;;;;;;0.10;0.10;;;;;;;11.70;60.40;102747.22;7361834;19;20520;-59
2023/02/04 07:22:06;;;;;;;0.10;0.10;;;;;;;11.58;60.29;102728.84;7362287;19;21239;-59
2023/02/04 07:24:31;;;;;;;0.10;0.10;;;;;;;11.69;60.59;102735.00;7362549;19;20010;-59
2023/02/04 07:26:57;;;;;;;0.10;0.10;;;;;;;11.59;60.73;102717.50;7362686;19;20006;-59
2023/02/04 07:29:22;;;;;;;0.10;0.10;;;;;;;11.70;60.42;102731.50;7360681;19;20017;-59
2023/02/04 07:31:50;;;;;;;0.10;0.10;;;;;;;11.72;60.59;102738.50;7357637;19;20156;-59
2023/02/04 07:34:16;;;;;;;;;;;;;;;11.78;61.20;102743.78;7363885;19;20011;-58
2023/02/04 07:36:41;;;;;;;0.10;0.10;;;;;;;11.67;60.75;102741.97;7354212;19;20312;-59
2023/02/04 07:39:07;;;;;;;0.10;0.10;;;;;;;11.58;60.35;102720.97;7361689;19;20014;-59
2023/02/04 07:41:33;;;;;;;0.10;0.10;;;;;;;11.70;60.34;102736.75;7360014;19;20007;-58
2023/02/04 07:43:58;;;;;;;0.10;0.10;;;;;;;11.70;60.32;102741.97;7360915;19;20015;-58
2023/02/04 07:46:24;;;;;;;0.00;0.00;;;;;;;11.68;60.85;102743.72;7359891;19;20024;-59
2023/02/04 07:48:49;;;;;;;0.10;0.10;;;;;;;11.63;60.81;102728.88;7359637;19;20591;-59
2023/02/04 07:51:14;;;;;;;0.10;0.10;;;;;;;11.61;60.56;102735.84;7362401;19;20018;-59
2023/02/04 07:53:40;;;;;;;0.10;0.10;;;;;;;11.67;60.57;102744.59;7360896;19;20006;-59
2023/02/04 07:56:05;;;;;;;0.00;0.00;;;;;;;11.65;60.77;102743.69;7354969;19;20009;-58
2023/02/04 07:58:31;;;;;;;0.00;0.00;;;;;;;11.69;60.91;102745.47;7360238;19;20013;-57
2023/02/04 08:00:56;;;;;;;0.00;0.00;;;;;;;11.64;60.92;102738.47;7360411;19;20010;-59
2023/02/04 08:03:22;;;;;;;0.10;0.10;;;;;;;11.70;61.02;102749.81;7357517;19;20017;-59
2023/02/04 08:05:47;;;;;;;0.10;0.10;;;;;;;11.64;60.84;102752.41;7360551;19;20014;-56
2023/02/04 08:08:14;;;;;;;0.03;0.03;;;;;;;11.67;60.72;102757.69;7362781;19;20002;-59
2023/02/04 08:10:39;;;;;;;0.10;0.10;;;;;;;11.72;60.82;102767.31;7354999;19;20019;-59
2023/02/04 08:13:05;;;;;;;0.00;0.00;;;;;;;11.69;60.65;102765.53;7361384;19;20589;-59
2023/02/04 08:15:30;;;;;;;0.08;0.08;;;;;;;11.57;61.02;102740.19;7360067;19;20561;-59
2023/02/04 08:17:55;;;;;;;0.10;0.10;;;;;;;11.73;60.83;102775.16;7355673;19;20057;-59
2023/02/04 08:20:21;;;;;;;0.10;0.10;;;;;;;11.74;60.75;102773.41;7360758;19;20017;-59
2023/02/04 08:22:46;;;;;;;0.10;0.10;;;;;;;11.74;60.53;102774.28;7342750;19;20014;-59
2023/02/04 08:25:12;;;;;;;0.10;0.10;;;;;;;11.75;60.74;102775.16;7360550;19;20501;-59
2023/02/04 08:27:38;;;;;;;0.00;0.00;;;;;;;11.75;60.86;102780.38;7361611;19;20757;-59
2023/02/04 08:30:04;;;;;;;0.10;0.10;;;;;;;11.74;60.85;102770.78;7356004;19;20014;-58
2023/02/04 08:32:30;;;;;;;0.10;0.10;;;;;;;11.62;60.91;102748.94;7360808;19;20029;-58
2023/02/04 08:34:58;;;;;;;0.00;0.00;;;;;;;11.63;61.22;102748.06;7362519;19;20128;-59
2023/02/04 08:37:24;;;;;;;0.10;0.10;;;;;;;11.75;60.78;102767.31;7362383;19;20725;-58
2023/02/04 08:39:49;;;;;;;0.10;0.10;;;;;;;11.68;60.93;102758.56;7357411;19;21397;-59
2023/02/04 08:42:15;;;;;;;0.05;0.05;;;;;;;11.76;60.86;102776.91;7361062;19;20040;-59
2023/02/04 08:44:42;;;;;;;0.10;0.10;;;;;;;11.76;60.99;102779.50;7357276;19;20355;-59
2023/02/04 08:47:08;;;;;;;0.10;0.10;;;;;;;11.74;60.88;102773.41;7361106;19;20014;-58
2023/02/04 08:49:34;;;;;;;0.10;0.10;;;;;;;11.77;60.83;102786.53;7361990;19;20849;-58
2023/02/04 08:52:01;;;;;;;0.10;0.10;;;;;;;11.78;60.94;102778.66;7358267;19;20009;-59
2023/02/04 08:54:27;;;;;;;0.10;0.10;;;;;;;11.78;61.21;102785.66;7360951;19;20295;-58
2023/02/04 08:56:52;;;;;;;0.10;0.10;;;;;;;11.79;60.95;102792.63;7358147;19;20014;-59
2023/02/04 08:59:18;;;;;;;0.10;0.10;;;;;;;11.80;61.06;102789.13;7357907;19;20359;-59
2023/02/04 09:01:47;;;;;;;0.10;0.10;;;;;;;11.83;61.19;102802.28;7363002;19;20011;-57
2023/02/04 09:04:13;;;;;;;0.10;0.10;;;;;;;11.79;61.21;102790.00;7358557;19;20033;-59
2023/02/04 09:06:38;;;;;;;0.08;0.08;;;;;;;11.84;61.39;102809.28;7361300;19;20021;-59
2023/02/04 09:09:04;;;;;;;0.05;0.05;;;;;;;11.82;61.32;102808.41;7359108;19;20014;-59
2023/02/04 09:11:29;;;;;;;0.00;0.00;;;;;;;11.81;61.88;102810.13;7359558;19;20618;-59
2023/02/04 09:13:56;;;;;;;0.10;0.10;;;;;;;11.84;62.20;102809.28;7360213;19;20006;-59
2023/02/04 09:16:21;;;;;;;0.10;0.10;;;;;;;11.81;62.19;102806.59;7360621;19;20481;-59
2023/02/04 09:18:47;;;;;;;0.00;0.00;;;;;;;11.76;62.17;102809.22;7358142;19;20011;-58
2023/02/04 09:21:12;;;;;;;0.10;0.10;;;;;;;11.84;62.34;102830.22;7360872;19;20022;-59
2023/02/04 09:23:38;;;;;;;0.08;0.08;;;;;;;11.75;62.36;102812.66;7359984;19;20021;-59
2023/02/04 09:26:05;;;;;;;0.05;0.05;;;;;;;11.70;62.84;102804.78;7357755;19;20017;-57
2023/02/04 09:28:31;;;;;;;0.00;0.00;;;;;;;11.80;62.96;102804.84;7360142;19;20015;-58
2023/02/04 09:30:56;;;;;;;0.00;0.00;;;;;;;11.81;62.76;102802.25;7355468;19;20481;-59
2023/02/04 09:33:22;;;;;;;0.00;0.00;;;;;;;11.74;62.97;102789.13;7360392;19;20010;-58
2023/02/04 09:35:47;;;;;;;0.10;0.10;;;;;;;11.72;62.83;102790.84;7359231;19;20010;-60
2023/02/04 09:38:13;;;;;;;0.10;0.10;;;;;;;11.80;62.88;102800.50;7359744;19;20010;-58
2023/02/04 09:40:46;;;;;;;0.10;0.10;;;;;;;11.85;63.24;102816.25;7361677;19;20847;-59
2023/02/04 09:43:17;;;;;;;0.00;0.00;;;;;;;11.84;63.26;102817.13;7355788;19;20916;-58
2023/02/04 09:45:42;;;;;;;0.10;0.10;;;;;;;11.80;63.46;102805.72;7359747;19;20776;-59
2023/02/04 09:48:12;;;;;;;0.10;0.10;;;;;;;11.78;63.50;102802.22;7355878;19;20006;-59
2023/02/04 09:50:38;;;;;;;0.10;0.10;;;;;;;11.84;63.34;102819.75;7360509;19;20007;-58
2023/02/04 09:53:05;;;;;;;0.10;0.10;;;;;;;11.85;63.23;102816.25;7357740;19;20871;-59
2023/02/04 09:55:36;;;;;;;0.10;0.10;;;;;;;11.86;63.05;102815.38;7359956;19;20474;-58
2023/02/04 09:58:11;;;;;;;0.05;0.05;;;;;;;11.81;62.95;102801.34;7350116;19;21002;-59
2023/02/04 10:00:36;;;;;;;0.00;0.00;;;;;;;11.84;63.13;102814.50;7359367;19;20027;-58
2023/02/04 10:03:02;;;;;;;0.10;0.10;;;;;;;11.86;62.82;102804.91;7354147;19;20015;-58
2023/02/04 10:05:32;;;;;;;0.10;0.10;;;;;;;11.89;62.78;102810.19;7359001;19;20127;-59
2023/02/04 10:07:58;;;;;;;0.10;0.10;;;;;;;11.78;63.16;102788.28;7359056;19;20094;-59
2023/02/04 10:10:26;;;;;;;0.10;0.10;;;;;;;11.91;62.71;102808.44;7359771;19;20482;-57
2023/02/04 10:12:53;;;;;;;;;;;;;;;11.97;62.63;102808.50;7358237;19;20024;-60
2023/02/04 10:15:19;;;;;;;0.10;0.10;;;;;;;11.95;62.85;102802.34;7356369;19;19989;-58
2023/02/04 10:17:48;;;;;;;0.05;0.05;;;;;;;11.97;62.94;102808.50;7358463;19;20011;-60
2023/02/04 10:20:19;;;;;;;0.00;0.00;;;;;;;12.01;62.57;102819.81;7355031;19;20458;-59
2023/02/04 10:22:46;;;;;;;0.10;0.10;;;;;;;12.00;62.40;102818.97;7357870;19;20014;-59
2023/02/04 10:25:14;;;;;;;0.05;0.05;;;;;;;12.03;62.59;102829.47;7356980;19;20615;-59
2023/02/04 10:28:05;;;;;;;0.10;0.10;;;;;;;11.95;62.51;102799.72;7354931;19;20042;-58
2023/02/04 10:30:38;;;;;;;0.00;0.00;;;;;;;12.05;62.47;102821.59;7254492;19;2004169;-56
2023/02/04 10:33:35;;;;;;;0.10;0.10;;;;;;;12.10;62.96;102831.22;7355935;19;20010;-62
2023/02/04 10:36:02;;;;;;;;;;;;;;;12.13;62.53;102831.25;7253878;19;2004976;-58
2023/02/04 10:38:27;;;;;;;0.03;0.03;;;;;;;12.12;62.56;102833.88;7352123;19;19930;-58
2023/02/04 10:41:04;;;;;;;0.10;0.10;;;;;;;12.14;62.74;102838.25;7357392;19;20010;-57
2023/02/04 10:43:30;;;;;;;0.00;0.00;;;;;;;12.15;62.63;102837.38;7358838;19;20026;-59
2023/02/04 10:46:02;;;;;;;0.10;0.10;;;;;;;12.19;62.71;102853.97;7355250;19;20026;-58
2023/02/04 10:48:29;;;;;;;0.10;0.10;;;;;;;12.09;63.09;102826.88;7336223;19;20043;-59
2023/02/04 10:50:55;;;;;;;0.00;0.00;;;;;;;12.12;63.14;102829.50;7354004;19;20010;-59
2023/02/04 10:56:18;;;;;;;0.00;0.00;;;;;;;12.15;62.99;102819.03;7354883;19;20017;-59
2023/02/04 10:58:44;;;;;;;0.08;0.08;;;;;;;12.29;63.04;102847.06;7352580;19;20011;-59
2023/02/04 11:01:15;;;;;;;0.03;0.03;;;;;;;12.33;63.04;102848.81;7352686;19;20332;-59
2023/02/04 11:03:41;;;;;;;0.00;0.00;;;;;;;12.35;63.49;102841.81;7355882;19;21130;-59
2023/02/04 11:06:13;;;;;;;0.10;0.10;;;;;;;12.38;63.16;102826.13;7353511;19;21647;-59
2023/02/04 11:08:39;;;;;;;0.10;0.10;;;;;;;12.19;63.29;102797.22;7354428;19;20018;-59
2023/02/04 11:11:08;;;;;;;0.10;0.10;;;;;;;12.09;63.26;102774.50;7356711;19;20510;-59
2023/02/04 11:13:50;;;;;;;0.10;0.10;;;;;;;12.53;63.45;102841.03;7355310;19;20031;-59
2023/02/04 11:16:47;;;;;;;0.10;0.10;;;;;;;12.62;63.02;102855.06;7356316;19;20017;-60
2023/02/04 11:19:16;;;;;;;0.10;0.10;;;;;;;12.62;63.06;102844.56;7252976;19;2004332;-59
2023/02/04 11:21:44;;;;;;;0.03;0.03;;;;;;;12.67;62.81;102828.81;7353224;19;20023;-57
2023/02/04 11:24:10;;;;;;;0.00;0.00;;;;;;;12.70;62.70;102840.19;7346932;19;20465;-59
2023/02/04 11:26:42;;;;;;;0.10;0.10;;;;;;;12.78;62.38;102840.25;7348550;19;20010;-59